createdAt,value
2022-09-18T00:02:18.797Z,6.16
2022-09-18T00:04:45.349Z,6.32
2022-09-18T00:07:11.821Z,6.52
2022-09-18T00:09:38.720Z,6.60
2022-09-18T00:12:05.354Z,6.75
2022-09-18T00:14:31.818Z,6.85
2022-09-18T00:16:58.312Z,6.90
2022-09-18T00:19:24.839Z,6.94
2022-09-18T00:21:52.120Z,6.99
2022-09-18T00:24:19.430Z,6.95
2022-09-18T00:26:47.265Z,6.83
2022-09-18T00:29:14.749Z,6.95
2022-09-18T00:31:42.325Z,6.87
2022-09-18T00:34:14.399Z,7.00
2022-09-18T00:36:41.647Z,7.03
2022-09-18T00:39:09.249Z,7.10
2022-09-18T00:41:39.217Z,7.06
2022-09-18T00:44:31.980Z,7.07
2022-09-18T00:47:06.833Z,7.07
2022-09-18T00:49:34.164Z,7.07
2022-09-18T00:52:01.739Z,7.15
2022-09-18T00:54:36.299Z,7.12
2022-09-18T00:57:07.762Z,7.18
2022-09-18T00:59:36.517Z,7.16
2022-09-18T01:02:05.103Z,7.28
2022-09-18T01:04:32.260Z,7.26
2022-09-18T01:07:06.780Z,7.25
2022-09-18T01:10:05.783Z,7.24
2022-09-18T01:12:54.480Z,7.26
2022-09-18T01:15:47.623Z,7.34
2022-09-18T01:18:31.415Z,7.26
2022-09-18T01:21:20.060Z,7.26
2022-09-18T01:24:18.903Z,7.24
2022-09-18T01:27:07.642Z,7.27
2022-09-18T01:30:15.405Z,7.32
2022-09-18T01:32:50.022Z,7.28
2022-09-18T01:35:40.187Z,7.32
2022-09-18T01:38:08.135Z,7.29
2022-09-18T01:40:44.531Z,7.25
2022-09-18T01:43:15.953Z,7.27
2022-09-18T01:45:46.710Z,7.19
2022-09-18T01:48:21.193Z,7.19
2022-09-18T01:50:54.497Z,7.22
2022-09-18T01:53:30.343Z,7.03
2022-09-18T01:56:06.229Z,7.01
2022-09-18T01:58:37.549Z,6.96
2022-09-18T02:01:10.158Z,6.85
2022-09-18T02:03:45.969Z,6.75
2022-09-18T02:06:22.221Z,6.69
2022-09-18T02:08:53.269Z,6.70
2022-09-18T02:11:20.888Z,6.69
2022-09-18T02:13:59.166Z,6.76
2022-09-18T02:16:36.782Z,6.70
2022-09-18T02:19:15.978Z,6.67
2022-09-18T02:21:43.775Z,6.69
2022-09-18T02:24:15.853Z,6.63
2022-09-18T02:26:47.998Z,6.57
2022-09-18T02:29:17.926Z,6.56
2022-09-18T02:31:45.042Z,6.51
2022-09-18T02:34:13.013Z,6.47
2022-09-18T02:36:48.416Z,6.53
2022-09-18T02:39:44.177Z,6.56
2022-09-18T02:42:19.712Z,6.66
2022-09-18T02:45:04.322Z,6.72
2022-09-18T02:47:58.623Z,6.77
2022-09-18T02:50:38.027Z,6.82
2022-09-18T02:53:15.333Z,6.85
2022-09-18T02:56:00.250Z,7.01
2022-09-18T02:58:30.701Z,6.94
2022-09-18T03:01:00.848Z,6.90
2022-09-18T03:03:29.696Z,7.07
2022-09-18T03:05:57.395Z,7.06
2022-09-18T03:08:24.068Z,7.10
2022-09-18T03:10:50.781Z,7.03
2022-09-18T03:13:17.941Z,7.02
2022-09-18T03:15:44.510Z,7.05
2022-09-18T03:18:11.100Z,7.05
2022-09-18T03:20:37.599Z,7.01
2022-09-18T03:23:04.062Z,7.07
2022-09-18T03:25:31.094Z,7.13
2022-09-18T03:27:57.571Z,7.07
2022-09-18T03:30:24.071Z,7.15
2022-09-18T03:32:50.743Z,7.18
2022-09-18T03:35:17.228Z,7.12
2022-09-18T03:37:43.694Z,7.15
2022-09-18T03:40:11.425Z,7.18
2022-09-18T03:42:37.995Z,7.17
2022-09-18T03:45:05.078Z,7.28
2022-09-18T03:47:35.673Z,7.28
2022-09-18T03:50:04.891Z,7.34
2022-09-18T03:52:31.497Z,7.30
2022-09-18T03:54:58.052Z,7.33
2022-09-18T03:57:25.083Z,7.32
2022-09-18T03:59:51.587Z,7.37
2022-09-18T04:02:18.090Z,7.44
2022-09-18T04:04:44.604Z,7.44
2022-09-18T04:07:11.142Z,7.51
2022-09-18T04:09:37.655Z,7.59
2022-09-18T04:12:04.438Z,7.56
2022-09-18T04:14:31.017Z,7.49
2022-09-18T04:16:57.538Z,7.44
2022-09-18T04:19:24.038Z,7.38
2022-09-18T04:21:50.510Z,7.39
2022-09-18T04:24:17.113Z,7.37
2022-09-18T04:26:43.608Z,7.34
2022-09-18T04:29:10.130Z,7.31
2022-09-18T04:31:36.827Z,7.35
2022-09-18T04:34:03.424Z,7.39
2022-09-18T04:36:29.957Z,7.37
2022-09-18T04:38:56.515Z,7.32
2022-09-18T04:41:22.985Z,7.35
2022-09-18T04:43:49.467Z,7.31
2022-09-18T04:46:16.012Z,7.34
2022-09-18T04:48:47.479Z,7.36
2022-09-18T04:51:14.135Z,7.38
2022-09-18T04:53:41.100Z,7.40
2022-09-18T04:56:08.183Z,7.36
2022-09-18T04:58:35.025Z,7.48
2022-09-18T05:01:03.549Z,7.46
2022-09-18T05:03:31.012Z,7.44
2022-09-18T05:05:57.479Z,7.46
2022-09-18T05:08:24.615Z,7.48
2022-09-18T05:10:51.244Z,7.47
2022-09-18T05:13:17.732Z,7.56
2022-09-18T05:15:44.337Z,7.53
2022-09-18T05:18:12.130Z,7.52
2022-09-18T05:20:38.957Z,7.59
2022-09-18T05:23:06.955Z,7.59
2022-09-18T05:25:34.036Z,7.66
2022-09-18T05:28:02.086Z,7.76
2022-09-18T05:30:29.739Z,7.83
2022-09-18T05:33:04.849Z,7.83
2022-09-18T05:35:33.318Z,7.85
2022-09-18T05:38:00.775Z,8.08
2022-09-18T05:40:34.144Z,8.20
2022-09-18T05:43:03.070Z,8.25
2022-09-18T05:45:32.853Z,8.33
2022-09-18T05:48:06.615Z,8.31
2022-09-18T05:50:37.387Z,8.37
2022-09-18T05:53:06.864Z,8.43
2022-09-18T05:55:34.647Z,8.52
2022-09-18T05:58:03.169Z,8.51
2022-09-18T06:00:31.732Z,8.46
2022-09-18T06:03:03.979Z,8.40
2022-09-18T06:05:32.788Z,8.36
2022-09-18T06:08:00.542Z,8.35
2022-09-18T06:10:28.765Z,8.51
2022-09-18T06:13:05.894Z,8.63
2022-09-18T06:15:36.713Z,8.63
2022-09-18T06:18:04.487Z,8.73
2022-09-18T06:20:30.999Z,8.96
2022-09-18T06:23:01.527Z,9.20
2022-09-18T06:25:29.425Z,9.36
2022-09-18T06:27:58.749Z,9.47
2022-09-18T06:30:26.888Z,9.36
2022-09-18T06:32:54.258Z,9.12
2022-09-18T06:35:20.893Z,9.15
2022-09-18T06:37:47.388Z,9.19
2022-09-18T06:40:14.339Z,9.07
2022-09-18T06:42:45.835Z,9.16
2022-09-18T06:45:12.606Z,9.25
2022-09-18T06:47:39.095Z,9.42
2022-09-18T06:50:06.754Z,9.41
2022-09-18T06:52:33.263Z,9.21
2022-09-18T06:54:59.765Z,9.13
2022-09-18T06:57:26.296Z,9.16
2022-09-18T06:59:52.860Z,9.04
2022-09-18T07:02:19.848Z,9.11
2022-09-18T07:04:46.990Z,9.11
2022-09-18T07:07:13.589Z,9.21
2022-09-18T07:09:40.144Z,9.36
2022-09-18T07:12:06.787Z,9.77
2022-09-18T07:14:33.356Z,9.95
2022-09-18T07:17:00.165Z,9.96
2022-09-18T07:19:32.739Z,9.86
2022-09-18T07:21:59.236Z,9.82
2022-09-18T07:24:26.298Z,9.97
2022-09-18T07:26:52.753Z,9.84
2022-09-18T07:29:19.352Z,10.05
2022-09-18T07:31:45.870Z,9.98
2022-09-18T07:34:12.631Z,9.70
2022-09-18T07:36:39.202Z,9.59
2022-09-18T07:39:05.683Z,9.47
2022-09-18T07:41:32.238Z,9.55
2022-09-18T07:43:58.728Z,9.60
2022-09-18T07:46:25.319Z,9.62
2022-09-18T07:48:51.869Z,9.64
2022-09-18T07:51:21.954Z,9.78
2022-09-18T07:53:51.993Z,9.82
2022-09-18T07:56:18.638Z,9.58
2022-09-18T07:58:45.114Z,9.73
2022-09-18T08:01:11.680Z,9.77
2022-09-18T08:03:41.349Z,9.75
2022-09-18T08:06:08.068Z,9.85
2022-09-18T08:08:36.286Z,9.77
2022-09-18T08:11:03.279Z,9.87
2022-09-18T08:13:29.918Z,9.78
2022-09-18T08:15:57.917Z,9.66
2022-09-18T08:18:24.559Z,9.80
2022-09-18T08:20:51.093Z,9.59
2022-09-18T08:23:17.587Z,9.69
2022-09-18T08:25:44.102Z,9.74
2022-09-18T08:28:10.821Z,9.68
2022-09-18T08:30:37.360Z,9.81
2022-09-18T08:33:07.018Z,9.72
2022-09-18T08:35:33.965Z,9.84
2022-09-18T08:38:00.830Z,9.88
2022-09-18T08:40:58.927Z,9.92
2022-09-18T08:43:28.698Z,9.93
2022-09-18T08:46:02.602Z,9.96
2022-09-18T08:48:33.557Z,10.13
2022-09-18T08:51:06.741Z,10.25
2022-09-18T08:53:40.293Z,10.38
2022-09-18T08:56:15.353Z,10.36
2022-09-18T08:58:48.274Z,10.62
2022-09-18T09:01:19.003Z,10.61
2022-09-18T09:04:08.079Z,10.52
2022-09-18T09:06:43.275Z,10.53
2022-09-18T09:09:42.514Z,10.50
2022-09-18T09:12:35.354Z,10.43
2022-09-18T09:15:12.465Z,10.10
2022-09-18T09:17:52.469Z,10.21
2022-09-18T09:20:23.234Z,10.21
2022-09-18T09:23:14.693Z,10.23
2022-09-18T09:25:51.063Z,10.31
2022-09-18T09:28:56.112Z,10.29
2022-09-18T09:31:26.184Z,10.11
2022-09-18T09:34:00.849Z,10.23
2022-09-18T09:36:33.171Z,10.37
2022-09-18T09:39:07.862Z,10.54
2022-09-18T09:41:45.077Z,10.63
2022-09-18T09:44:17.329Z,10.90
2022-09-18T09:47:01.006Z,10.96
2022-09-18T09:49:30.072Z,11.19
2022-09-18T09:52:10.450Z,10.97
2022-09-18T09:54:37.270Z,11.03
2022-09-18T09:57:17.900Z,10.96
2022-09-18T10:00:04.986Z,10.82
2022-09-18T10:02:57.246Z,11.06
2022-09-18T10:05:34.501Z,10.93
2022-09-18T10:08:00.932Z,11.01
2022-09-18T10:10:36.278Z,10.82
2022-09-18T10:13:28.070Z,10.94
2022-09-18T10:16:19.759Z,10.80
2022-09-18T10:18:48.140Z,11.03
2022-09-18T10:21:27.144Z,10.82
2022-09-18T10:24:08.373Z,10.76
2022-09-18T10:26:53.007Z,10.51
2022-09-18T10:29:19.762Z,10.61
2022-09-18T10:31:55.960Z,10.76
2022-09-18T10:34:45.722Z,10.88
2022-09-18T10:37:30.247Z,10.80
2022-09-18T10:40:01.424Z,10.99
2022-09-18T10:42:37.492Z,10.99
2022-09-18T10:45:06.719Z,11.03
2022-09-18T10:47:35.708Z,10.89
2022-09-18T10:50:11.327Z,11.08
2022-09-18T10:52:41.690Z,11.18
2022-09-18T10:55:09.037Z,11.15
2022-09-18T10:58:03.945Z,11.07
2022-09-18T11:00:41.899Z,11.32
2022-09-18T11:03:38.198Z,11.42
2022-09-18T11:06:15.097Z,11.66
2022-09-18T11:08:46.409Z,11.94
2022-09-18T11:11:26.470Z,12.14
2022-09-18T11:13:57.507Z,11.96
2022-09-18T11:16:28.361Z,11.98
2022-09-18T11:19:32.610Z,11.78
2022-09-18T11:22:02.910Z,11.46
2022-09-18T11:24:35.244Z,11.17
2022-09-18T11:27:04.207Z,11.20
2022-09-18T11:29:39.848Z,11.17
2022-09-18T11:32:27.673Z,11.31
2022-09-18T11:35:02.017Z,11.52
2022-09-18T11:37:39.692Z,11.52
2022-09-18T11:40:19.349Z,11.50
2022-09-18T11:42:48.576Z,11.55
2022-09-18T11:45:34.882Z,11.08
2022-09-18T11:48:34.788Z,11.02
2022-09-18T11:51:05.118Z,11.09
2022-09-18T11:54:04.379Z,10.85
2022-09-18T11:56:36.966Z,10.70
2022-09-18T11:59:13.804Z,10.64
2022-09-18T12:01:43.146Z,10.62
2022-09-18T12:04:26.679Z,10.54
2022-09-18T12:06:53.675Z,10.81
2022-09-18T12:09:35.590Z,10.78
2022-09-18T12:12:10.870Z,10.80
2022-09-18T12:14:40.225Z,10.86
2022-09-18T12:17:22.643Z,11.13
2022-09-18T12:19:54.881Z,11.24
2022-09-18T12:22:33.448Z,11.55
2022-09-18T12:25:00.038Z,12.10
2022-09-18T12:27:34.119Z,12.21
2022-09-18T12:30:07.413Z,12.59
2022-09-18T12:33:02.865Z,12.73
2022-09-18T12:36:12.253Z,12.96
2022-09-18T12:38:45.523Z,12.69
2022-09-18T12:41:40.764Z,12.56
2022-09-18T12:44:37.513Z,12.52
2022-09-18T12:47:31.744Z,12.06
2022-09-18T12:50:28.537Z,12.30
2022-09-18T12:53:41.312Z,12.03
2022-09-18T12:56:33.469Z,12.27
2022-09-18T12:59:17.968Z,12.34
2022-09-18T13:01:51.550Z,12.60
2022-09-18T13:04:24.610Z,12.61
2022-09-18T13:07:06.139Z,13.10
2022-09-18T13:10:17.626Z,13.16
2022-09-18T13:13:09.922Z,13.30
2022-09-18T13:15:43.620Z,13.39
2022-09-18T13:18:35.595Z,13.34
2022-09-18T13:21:05.996Z,13.03
2022-09-18T13:23:39.544Z,13.07
2022-09-18T13:26:10.529Z,12.76
2022-09-18T13:28:40.107Z,12.85
2022-09-18T13:31:30.597Z,12.91
2022-09-18T13:34:04.302Z,13.18
2022-09-18T13:36:39.831Z,13.48
2022-09-18T13:39:18.332Z,13.78
2022-09-18T13:41:48.100Z,13.37
2022-09-18T13:44:20.611Z,13.65
2022-09-18T13:46:49.594Z,13.56
2022-09-18T13:49:18.937Z,13.95
2022-09-18T13:51:45.448Z,13.76
2022-09-18T13:54:12.009Z,13.70
2022-09-18T13:57:00.095Z,13.36
2022-09-18T13:59:48.038Z,12.82
2022-09-18T14:02:23.814Z,12.38
2022-09-18T14:04:57.364Z,12.40
2022-09-18T14:07:23.759Z,12.42
2022-09-18T14:10:05.749Z,12.27
2022-09-18T14:12:35.097Z,12.64
2022-09-18T14:15:01.802Z,12.67
2022-09-18T14:17:31.069Z,12.51
2022-09-18T14:20:19.911Z,12.76
2022-09-18T14:22:46.384Z,12.97
2022-09-18T14:25:14.543Z,12.45
2022-09-18T14:27:57.048Z,12.18
2022-09-18T14:30:29.243Z,12.02
2022-09-18T14:33:03.594Z,12.07
2022-09-18T14:35:42.038Z,12.29
2022-09-18T14:38:24.669Z,12.17
2022-09-18T14:41:24.819Z,12.08
2022-09-18T14:43:53.374Z,12.06
2022-09-18T14:46:21.811Z,12.06
2022-09-18T14:48:48.914Z,11.99
2022-09-18T14:51:27.953Z,11.78
2022-09-18T14:53:56.617Z,11.64
2022-09-18T14:56:34.354Z,11.56
2022-09-18T14:59:06.027Z,11.82
2022-09-18T15:01:40.039Z,11.94
2022-09-18T15:04:13.575Z,11.86
2022-09-18T15:06:53.456Z,11.97
2022-09-18T15:09:32.790Z,12.08
2022-09-18T15:12:02.901Z,12.08
2022-09-18T15:14:37.786Z,12.10
2022-09-18T15:17:20.370Z,11.98
2022-09-18T15:20:08.977Z,12.14
2022-09-18T15:22:35.546Z,11.97
2022-09-18T15:25:02.227Z,11.96
2022-09-18T15:27:30.070Z,11.89
2022-09-18T15:30:04.149Z,11.86
2022-09-18T15:32:38.711Z,11.94
2022-09-18T15:35:08.882Z,12.01
2022-09-18T15:37:38.170Z,11.71
2022-09-18T15:40:09.291Z,11.75
2022-09-18T15:42:40.279Z,11.58
2022-09-18T15:45:06.720Z,11.56
2022-09-18T15:47:36.442Z,11.44
2022-09-18T15:50:12.150Z,11.45
2022-09-18T15:52:40.048Z,11.60
2022-09-18T15:55:46.667Z,11.54
2022-09-18T15:58:44.051Z,11.40
2022-09-18T16:01:20.927Z,11.33
2022-09-18T16:03:48.054Z,11.33
2022-09-18T16:06:26.521Z,11.31
2022-09-18T16:08:55.711Z,11.22
2022-09-18T16:11:40.131Z,11.18
2022-09-18T16:14:45.170Z,11.19
2022-09-18T16:17:31.965Z,11.17
2022-09-18T16:20:21.789Z,11.11
2022-09-18T16:22:50.248Z,11.04
2022-09-18T16:25:25.146Z,10.96
2022-09-18T16:27:54.380Z,10.91
2022-09-18T16:30:20.875Z,10.90
2022-09-18T16:32:47.349Z,10.76
2022-09-18T16:35:15.233Z,10.74
2022-09-18T16:37:43.742Z,10.67
2022-09-18T16:40:17.639Z,10.70
2022-09-18T16:42:44.342Z,10.66
2022-09-18T16:45:11.608Z,10.60
2022-09-18T16:47:44.796Z,10.55
2022-09-18T16:50:11.981Z,10.45
2022-09-18T16:52:38.487Z,10.48
2022-09-18T16:55:05.680Z,10.45
2022-09-18T16:57:32.206Z,10.49
2022-09-18T17:00:05.028Z,10.41
2022-09-18T17:02:31.690Z,10.36
2022-09-18T17:04:58.416Z,10.31
2022-09-18T17:07:25.607Z,10.31
2022-09-18T17:09:52.127Z,10.45
2022-09-18T17:12:18.569Z,10.37
2022-09-18T17:14:45.031Z,10.38
2022-09-18T17:17:13.428Z,10.35
2022-09-18T17:19:40.953Z,10.41
2022-09-18T17:22:08.746Z,10.29
2022-09-18T17:24:35.358Z,10.37
2022-09-18T17:27:01.856Z,10.34
2022-09-18T17:29:28.322Z,10.36
2022-09-18T17:31:55.042Z,10.35
2022-09-18T17:34:22.110Z,10.34
2022-09-18T17:36:48.706Z,10.27
2022-09-18T17:39:17.067Z,10.35
2022-09-18T17:41:44.865Z,10.38
2022-09-18T17:44:11.360Z,10.41
2022-09-18T17:46:37.935Z,10.33
2022-09-18T17:49:05.872Z,10.33
2022-09-18T17:51:33.264Z,10.24
2022-09-18T17:54:02.926Z,10.30
2022-09-18T17:56:30.814Z,10.42
2022-09-18T17:59:00.109Z,10.28
2022-09-18T18:01:28.173Z,10.19
2022-09-18T18:03:55.088Z,10.24
2022-09-18T18:06:22.009Z,10.12
2022-09-18T18:08:49.967Z,10.09
2022-09-18T18:11:18.594Z,10.14
2022-09-18T18:13:47.652Z,10.03
2022-09-18T18:16:17.832Z,9.99
2022-09-18T18:18:44.337Z,9.91
2022-09-18T18:21:11.159Z,9.93
2022-09-18T18:23:38.463Z,9.98
2022-09-18T18:26:07.890Z,9.96
2022-09-18T18:28:36.303Z,9.84
2022-09-18T18:31:07.037Z,9.84
2022-09-18T18:33:35.161Z,9.85
2022-09-18T18:36:16.673Z,9.88
2022-09-18T18:38:45.993Z,9.78
2022-09-18T18:41:14.230Z,9.73
2022-09-18T18:43:41.482Z,9.75
2022-09-18T18:46:12.269Z,9.72
2022-09-18T18:48:40.250Z,9.77
2022-09-18T18:51:12.818Z,9.81
2022-09-18T18:53:39.551Z,9.69
2022-09-18T18:56:11.982Z,9.65
2022-09-18T18:58:39.191Z,9.67
2022-09-18T19:01:06.877Z,9.66
2022-09-18T19:03:38.105Z,9.74
2022-09-18T19:06:06.463Z,9.67
2022-09-18T19:08:35.592Z,9.77
2022-09-18T19:11:03.032Z,9.76
2022-09-18T19:13:30.220Z,9.77
2022-09-18T19:15:56.899Z,9.78
2022-09-18T19:18:23.624Z,9.78
2022-09-18T19:20:53.502Z,9.68
2022-09-18T19:23:20.897Z,9.71
2022-09-18T19:25:47.505Z,9.72
2022-09-18T19:28:16.951Z,9.85
2022-09-18T19:30:43.739Z,9.78
2022-09-18T19:33:15.315Z,9.76
2022-09-18T19:35:42.394Z,9.77
2022-09-18T19:38:09.273Z,9.78
2022-09-18T19:40:38.438Z,9.77
2022-09-18T19:43:13.725Z,9.85
2022-09-18T19:45:42.311Z,9.95
2022-09-18T19:48:21.344Z,9.89
2022-09-18T19:50:48.123Z,9.87
2022-09-18T19:53:15.258Z,9.94
2022-09-18T19:55:47.683Z,10.01
2022-09-18T19:58:15.780Z,10.02
2022-09-18T20:00:44.376Z,10.01
2022-09-18T20:03:11.221Z,10.06
2022-09-18T20:05:38.430Z,9.94
2022-09-18T20:08:06.758Z,10.02
2022-09-18T20:10:35.627Z,10.01
2022-09-18T20:13:02.538Z,9.85
2022-09-18T20:15:29.045Z,9.84
2022-09-18T20:17:56.512Z,9.78
2022-09-18T20:20:22.978Z,9.70
2022-09-18T20:22:53.385Z,9.63
2022-09-18T20:25:20.136Z,9.64
2022-09-18T20:27:46.713Z,9.63
2022-09-18T20:30:13.475Z,9.58
2022-09-18T20:32:40.497Z,9.65
2022-09-18T20:35:07.363Z,9.62
2022-09-18T20:37:33.854Z,9.65
2022-09-18T20:40:04.158Z,9.62
2022-09-18T20:42:31.994Z,9.64
2022-09-18T20:45:02.149Z,9.61
2022-09-18T20:47:34.732Z,9.67
2022-09-18T20:50:13.274Z,9.64
2022-09-18T20:52:43.078Z,9.58
2022-09-18T20:55:12.557Z,9.57
2022-09-18T20:57:40.726Z,9.63
2022-09-18T21:00:09.784Z,9.57
2022-09-18T21:02:37.723Z,9.53
2022-09-18T21:05:08.669Z,9.45
2022-09-18T21:07:35.222Z,9.40
2022-09-18T21:10:01.845Z,9.35
2022-09-18T21:12:38.199Z,9.37
2022-09-18T21:15:07.500Z,9.27
2022-09-18T21:17:34.167Z,9.23
2022-09-18T21:20:02.165Z,9.26
2022-09-18T21:22:30.329Z,9.23
2022-09-18T21:24:56.779Z,9.20
2022-09-18T21:27:23.282Z,9.21
2022-09-18T21:29:49.741Z,9.21
2022-09-18T21:32:16.550Z,9.16
2022-09-18T21:34:44.115Z,9.21
2022-09-18T21:37:12.101Z,9.22
2022-09-18T21:39:39.155Z,9.24
2022-09-18T21:42:07.355Z,9.28
2022-09-18T21:44:36.024Z,9.26
2022-09-18T21:47:05.310Z,9.15
2022-09-18T21:49:32.451Z,9.21
2022-09-18T21:52:01.789Z,9.22
2022-09-18T21:54:28.564Z,9.19
2022-09-18T21:56:56.621Z,9.11
2022-09-18T21:59:25.460Z,9.05
2022-09-18T22:01:55.285Z,9.04
2022-09-18T22:04:26.225Z,9.09
2022-09-18T22:06:55.436Z,9.08
2022-09-18T22:09:27.480Z,9.04
2022-09-18T22:11:55.170Z,9.12
2022-09-18T22:14:32.225Z,9.11
2022-09-18T22:17:00.920Z,9.17
2022-09-18T22:19:29.168Z,9.24
2022-09-18T22:21:56.959Z,9.40
2022-09-18T22:24:26.076Z,9.58
2022-09-18T22:27:00.050Z,9.78
2022-09-18T22:29:34.205Z,9.85
2022-09-18T22:32:01.706Z,9.79
2022-09-18T22:34:29.946Z,9.77
2022-09-18T22:36:58.202Z,9.86
2022-09-18T22:39:24.768Z,9.79
2022-09-18T22:41:51.904Z,9.75
2022-09-18T22:44:21.349Z,9.80
2022-09-18T22:46:48.751Z,9.82
2022-09-18T22:49:17.228Z,9.78
2022-09-18T22:51:44.856Z,9.74
2022-09-18T22:54:12.911Z,9.75
2022-09-18T22:56:44.509Z,9.68
2022-09-18T22:59:13.186Z,9.54
2022-09-18T23:01:48.955Z,9.60
2022-09-18T23:04:18.767Z,9.51
2022-09-18T23:06:47.703Z,9.45
2022-09-18T23:09:15.872Z,9.44
2022-09-18T23:11:43.951Z,9.46
2022-09-18T23:14:17.073Z,9.35
2022-09-18T23:16:43.883Z,9.35
2022-09-18T23:19:20.463Z,9.29
2022-09-18T23:21:47.036Z,9.32
2022-09-18T23:24:15.994Z,9.26
2022-09-18T23:26:45.359Z,9.22
2022-09-18T23:29:17.531Z,9.08
2022-09-18T23:31:45.934Z,8.95
2022-09-18T23:34:15.069Z,8.87
2022-09-18T23:36:44.655Z,8.85
2022-09-18T23:39:18.220Z,8.71
2022-09-18T23:41:45.507Z,8.59
2022-09-18T23:44:14.577Z,8.53
2022-09-18T23:46:42.262Z,8.49
2022-09-18T23:49:09.773Z,8.43
2022-09-18T23:51:40.466Z,8.40
2022-09-18T23:54:12.423Z,8.35
2022-09-18T23:56:38.904Z,8.29
2022-09-18T23:59:06.912Z,8.31
